createdAt,value
2022-08-04T00:01:45.330Z,21.48
2022-08-04T00:04:15.131Z,21.47
2022-08-04T00:06:56.248Z,21.47
2022-08-04T00:09:42.602Z,21.47
2022-08-04T00:12:12.835Z,21.50
2022-08-04T00:14:50.196Z,21.50
2022-08-04T00:17:21.729Z,21.54
2022-08-04T00:19:53.504Z,21.53
2022-08-04T00:22:23.558Z,21.51
2022-08-04T00:24:51.434Z,21.54
2022-08-04T00:27:19.379Z,21.52
2022-08-04T00:29:48.134Z,21.54
2022-08-04T00:32:33.691Z,21.51
2022-08-04T00:35:02.690Z,21.41
2022-08-04T00:37:33.207Z,21.31
2022-08-04T00:40:03.599Z,21.26
2022-08-04T00:42:59.395Z,21.17
2022-08-04T00:46:15.872Z,21.14
2022-08-04T00:49:11.102Z,21.03
2022-08-04T00:51:41.624Z,21.00
2022-08-04T00:54:23.241Z,20.97
2022-08-04T00:57:33.545Z,20.96
2022-08-04T01:00:09.661Z,20.85
2022-08-04T01:02:58.341Z,20.86
2022-08-04T01:05:37.495Z,20.89
2022-08-04T01:08:23.669Z,20.88
2022-08-04T01:11:56.133Z,20.85
2022-08-04T01:15:00.130Z,20.80
2022-08-04T01:18:06.300Z,20.73
2022-08-04T01:21:06.484Z,20.67
2022-08-04T01:24:05.951Z,20.65
2022-08-04T01:26:58.331Z,20.68
2022-08-04T01:29:46.888Z,20.72
2022-08-04T01:32:32.802Z,20.68
2022-08-04T01:35:07.794Z,20.77
2022-08-04T01:37:44.543Z,20.79
2022-08-04T01:40:15.368Z,20.88
2022-08-04T01:42:47.920Z,20.90
2022-08-04T01:45:15.967Z,20.87
2022-08-04T01:47:53.599Z,20.88
2022-08-04T01:50:22.538Z,20.86
2022-08-04T01:52:54.846Z,20.87
2022-08-04T01:55:23.498Z,20.87
2022-08-04T01:57:52.750Z,20.82
2022-08-04T02:00:23.026Z,20.72
2022-08-04T02:02:51.403Z,20.72
2022-08-04T02:05:21.330Z,20.69
2022-08-04T02:08:07.881Z,20.76
2022-08-04T02:11:11.900Z,20.80
2022-08-04T02:13:45.926Z,20.85
2022-08-04T02:16:21.076Z,20.82
2022-08-04T02:19:19.467Z,20.70
2022-08-04T02:21:51.937Z,20.73
2022-08-04T02:24:24.946Z,20.73
2022-08-04T02:26:56.531Z,20.70
2022-08-04T02:29:45.599Z,20.69
2022-08-04T02:32:25.773Z,20.63
2022-08-04T02:35:06.658Z,20.63
2022-08-04T02:37:35.280Z,20.70
2022-08-04T02:40:06.330Z,20.73
2022-08-04T02:42:34.365Z,20.73
2022-08-04T02:45:03.962Z,20.65
2022-08-04T02:48:28.846Z,20.55
2022-08-04T02:50:28.887Z,20.52
2022-08-04T02:53:00.649Z,20.49
2022-08-04T02:55:30.311Z,20.51
2022-08-04T02:58:03.506Z,20.50
2022-08-04T03:00:31.963Z,20.55
2022-08-04T03:03:31.302Z,20.62
2022-08-04T03:06:36.613Z,20.59
2022-08-04T03:09:30.211Z,20.52
2022-08-04T03:12:11.889Z,20.61
2022-08-04T03:14:54.726Z,20.60
2022-08-04T03:17:55.144Z,20.48
2022-08-04T03:20:56.451Z,20.52
2022-08-04T03:23:27.107Z,20.57
2022-08-04T03:26:19.351Z,20.52
2022-08-04T03:28:53.179Z,20.41
2022-08-04T03:31:29.612Z,20.28
2022-08-04T03:34:35.214Z,20.18
2022-08-04T03:37:24.937Z,20.16
2022-08-04T03:40:21.700Z,20.09
2022-08-04T03:43:58.366Z,20.15
2022-08-04T03:46:15.767Z,20.14
2022-08-04T03:49:15.609Z,20.15
2022-08-04T03:52:08.752Z,20.10
2022-08-04T03:55:00.420Z,20.06
2022-08-04T03:57:58.483Z,20.02
2022-08-04T04:00:58.295Z,19.99
2022-08-04T04:03:59.032Z,20.01
2022-08-04T04:06:54.237Z,19.99
2022-08-04T04:10:06.005Z,19.91
2022-08-04T04:12:56.799Z,19.93
2022-08-04T04:15:39.527Z,19.99
2022-08-04T04:18:34.090Z,20.03
2022-08-04T04:21:29.519Z,20.08
2022-08-04T04:24:26.081Z,20.11
2022-08-04T04:27:36.981Z,20.09
2022-08-04T04:30:07.954Z,20.04
2022-08-04T04:32:53.015Z,20.09
2022-08-04T04:35:33.874Z,20.18
2022-08-04T04:38:13.266Z,20.14
2022-08-04T04:40:49.432Z,20.18
2022-08-04T04:43:51.507Z,20.18
2022-08-04T04:46:48.909Z,20.27
2022-08-04T04:49:39.387Z,20.33
2022-08-04T04:52:18.226Z,20.42
2022-08-04T04:55:13.300Z,20.55
2022-08-04T04:57:54.093Z,20.70
2022-08-04T05:00:43.471Z,20.87
2022-08-04T05:03:37.539Z,20.99
2022-08-04T05:06:15.305Z,20.96
2022-08-04T05:09:01.195Z,21.00
2022-08-04T05:14:30.842Z,21.01
2022-08-04T05:15:04.090Z,21.09
2022-08-04T05:17:38.864Z,21.03
2022-08-04T05:20:12.242Z,21.13
2022-08-04T05:22:58.352Z,21.17
2022-08-04T05:25:34.816Z,21.23
2022-08-04T05:28:12.715Z,21.28
2022-08-04T05:30:48.739Z,21.30
2022-08-04T05:33:27.222Z,21.30
2022-08-04T05:36:20.598Z,21.25
2022-08-04T05:38:54.435Z,21.28
2022-08-04T05:41:23.054Z,21.31
2022-08-04T05:44:02.281Z,21.32
2022-08-04T05:46:31.443Z,21.37
2022-08-04T05:48:59.118Z,21.41
2022-08-04T05:51:30.983Z,21.51
2022-08-04T05:53:59.727Z,21.47
2022-08-04T05:56:29.213Z,21.58
2022-08-04T05:58:58.478Z,21.65
2022-08-04T06:01:27.382Z,21.69
2022-08-04T06:03:58.996Z,21.74
2022-08-04T06:06:27.967Z,21.69
2022-08-04T06:08:56.947Z,21.66
2022-08-04T06:11:28.142Z,21.69
2022-08-04T06:14:04.557Z,21.80
2022-08-04T06:16:39.236Z,21.88
2022-08-04T06:20:00.574Z,21.88
2022-08-04T06:22:00.179Z,21.92
2022-08-04T06:24:29.056Z,22.01
2022-08-04T06:26:57.647Z,22.14
2022-08-04T06:29:33.817Z,22.07
2022-08-04T06:32:30.488Z,22.37
2022-08-04T06:35:02.134Z,22.19
2022-08-04T06:37:43.090Z,22.46
2022-08-04T06:40:29.364Z,22.62
2022-08-04T06:43:02.337Z,22.55
2022-08-04T06:45:31.399Z,22.72
2022-08-04T06:48:01.130Z,22.77
2022-08-04T06:51:27.334Z,22.86
2022-08-04T06:53:18.087Z,22.92
2022-08-04T06:55:47.906Z,22.86
2022-08-04T06:58:17.358Z,22.77
2022-08-04T07:00:47.302Z,22.89
2022-08-04T07:03:18.207Z,22.79
2022-08-04T07:05:50.949Z,22.83
2022-08-04T07:08:19.352Z,23.00
2022-08-04T07:10:47.812Z,22.97
2022-08-04T07:13:16.107Z,23.06
2022-08-04T07:15:45.963Z,23.19
2022-08-04T07:18:14.103Z,23.54
2022-08-04T07:20:46.126Z,23.54
2022-08-04T07:23:17.876Z,23.70
2022-08-04T07:26:11.210Z,23.96
2022-08-04T07:28:41.568Z,23.89
2022-08-04T07:31:33.022Z,23.81
2022-08-04T07:34:17.208Z,23.90
2022-08-04T07:36:55.334Z,23.97
2022-08-04T07:39:28.336Z,23.99
2022-08-04T07:42:01.725Z,24.09
2022-08-04T07:44:34.486Z,24.05
2022-08-04T07:47:04.193Z,23.94
2022-08-04T07:49:54.988Z,23.86
2022-08-04T07:52:20.364Z,23.97
2022-08-04T07:54:50.566Z,24.17
2022-08-04T07:57:40.664Z,24.13
2022-08-04T08:00:08.167Z,24.14
2022-08-04T08:02:43.426Z,24.08
2022-08-04T08:05:14.447Z,24.00
2022-08-04T08:07:55.250Z,24.02
2022-08-04T08:10:24.380Z,24.18
2022-08-04T08:12:54.051Z,23.97
2022-08-04T08:15:22.414Z,24.00
2022-08-04T08:17:58.301Z,23.87
2022-08-04T08:20:28.935Z,23.71
2022-08-04T08:22:59.521Z,23.59
2022-08-04T08:25:27.431Z,23.52
2022-08-04T08:27:55.904Z,23.46
2022-08-04T08:30:31.658Z,23.24
2022-08-04T08:33:02.768Z,23.16
2022-08-04T08:35:52.932Z,23.13
2022-08-04T08:38:37.922Z,23.13
2022-08-04T08:41:33.880Z,23.14
2022-08-04T08:44:30.043Z,23.18
2022-08-04T08:47:13.289Z,22.99
2022-08-04T08:50:16.209Z,22.95
2022-08-04T08:53:13.781Z,23.07
2022-08-04T08:55:56.311Z,22.99
2022-08-04T08:59:00.803Z,23.13
2022-08-04T09:02:22.906Z,23.12
2022-08-04T09:05:19.829Z,23.37
2022-08-04T09:07:53.486Z,23.57
2022-08-04T09:10:31.843Z,23.54
2022-08-04T09:13:24.607Z,23.59
2022-08-04T09:16:16.971Z,23.60
2022-08-04T09:18:54.859Z,23.79
2022-08-04T09:21:40.523Z,23.77
2022-08-04T09:24:34.770Z,23.69
2022-08-04T09:27:18.762Z,23.63
2022-08-04T09:30:05.317Z,23.88
2022-08-04T09:32:37.124Z,24.13
2022-08-04T09:35:19.314Z,24.28
2022-08-04T09:38:11.102Z,24.43
2022-08-04T09:41:20.785Z,24.53
2022-08-04T09:44:42.937Z,24.67
2022-08-04T09:47:13.893Z,24.85
2022-08-04T09:49:55.813Z,25.08
2022-08-04T09:52:43.420Z,25.25
2022-08-04T09:55:35.097Z,25.32
2022-08-04T09:58:11.616Z,25.41
2022-08-04T10:00:48.519Z,25.58
2022-08-04T10:03:20.301Z,25.63
2022-08-04T10:06:27.198Z,25.49
2022-08-04T10:09:09.124Z,25.23
2022-08-04T10:11:57.956Z,25.10
2022-08-04T10:14:40.754Z,25.22
2022-08-04T10:17:26.703Z,25.26
2022-08-04T10:20:06.123Z,25.40
2022-08-04T10:22:50.042Z,25.44
2022-08-04T10:26:07.540Z,25.40
2022-08-04T10:28:46.863Z,25.28
2022-08-04T10:31:22.827Z,25.31
2022-08-04T10:34:01.822Z,25.36
2022-08-04T10:36:39.879Z,25.45
2022-08-04T10:39:42.011Z,25.59
2022-08-04T10:42:21.840Z,26.02
2022-08-04T10:44:57.631Z,26.10
2022-08-04T10:47:34.010Z,26.19
2022-08-04T10:50:03.341Z,26.33
2022-08-04T10:52:43.308Z,26.54
2022-08-04T10:55:20.141Z,26.69
2022-08-04T10:57:55.407Z,26.54
2022-08-04T11:00:28.435Z,26.58
2022-08-04T11:03:15.942Z,26.68
2022-08-04T11:05:55.525Z,26.56
2022-08-04T11:08:44.438Z,26.33
2022-08-04T11:11:21.110Z,26.11
2022-08-04T11:13:59.113Z,26.04
2022-08-04T11:16:30.379Z,25.85
2022-08-04T11:19:12.780Z,25.88
2022-08-04T11:21:47.736Z,25.89
2022-08-04T11:24:27.240Z,25.98
2022-08-04T11:27:01.124Z,25.98
2022-08-04T11:29:52.094Z,25.98
2022-08-04T11:32:32.557Z,25.98
2022-08-04T11:35:05.671Z,26.03
2022-08-04T11:38:02.402Z,25.99
2022-08-04T11:40:37.964Z,25.96
2022-08-04T11:43:12.684Z,25.97
2022-08-04T11:45:54.851Z,25.98
2022-08-04T11:48:32.766Z,26.01
2022-08-04T11:51:02.526Z,26.05
2022-08-04T11:53:37.506Z,26.26
2022-08-04T11:56:11.409Z,26.33
2022-08-04T11:58:40.348Z,26.42
2022-08-04T12:01:27.658Z,26.39
2022-08-04T12:04:37.186Z,26.38
2022-08-04T12:07:41.229Z,26.27
2022-08-04T12:10:42.319Z,26.15
2022-08-04T12:13:24.546Z,26.41
2022-08-04T12:16:03.664Z,26.51
2022-08-04T12:18:34.926Z,26.61
2022-08-04T12:21:07.678Z,26.84
2022-08-04T12:23:41.296Z,27.13
2022-08-04T12:26:26.555Z,27.56
2022-08-04T12:29:10.125Z,27.75
2022-08-04T12:31:53.006Z,27.75
2022-08-04T12:34:42.003Z,27.60
2022-08-04T12:37:27.611Z,27.26
2022-08-04T12:40:27.835Z,27.22
2022-08-04T12:43:15.797Z,27.02
2022-08-04T12:45:57.006Z,27.13
2022-08-04T12:48:27.375Z,27.17
2022-08-04T12:50:57.347Z,27.21
2022-08-04T12:53:50.924Z,27.14
2022-08-04T12:56:26.709Z,27.24
2022-08-04T12:59:02.342Z,27.22
2022-08-04T13:02:07.841Z,27.49
2022-08-04T13:04:29.072Z,27.53
2022-08-04T13:07:03.511Z,27.91
2022-08-04T13:09:34.286Z,27.86
2022-08-04T13:12:42.125Z,28.03
2022-08-04T13:15:18.268Z,28.12
2022-08-04T13:17:51.045Z,28.12
2022-08-04T13:20:26.690Z,28.04
2022-08-04T13:23:09.785Z,27.81
2022-08-04T13:26:44.988Z,27.88
2022-08-04T13:28:43.382Z,27.90
2022-08-04T13:31:20.737Z,27.95
2022-08-04T13:33:51.698Z,27.95
2022-08-04T13:36:24.687Z,28.20
2022-08-04T13:38:56.097Z,28.33
2022-08-04T13:41:28.988Z,28.37
2022-08-04T13:44:17.500Z,28.49
2022-08-04T13:46:51.307Z,28.65
2022-08-04T13:49:42.550Z,28.77
2022-08-04T13:52:09.965Z,28.78
2022-08-04T13:54:47.348Z,28.60
2022-08-04T13:57:19.610Z,28.39
2022-08-04T13:59:56.482Z,28.14
2022-08-04T14:02:48.952Z,28.03
2022-08-04T14:05:31.250Z,27.83
2022-08-04T14:08:24.999Z,27.60
2022-08-04T14:10:57.780Z,27.37
2022-08-04T14:13:41.541Z,27.21
2022-08-04T14:16:21.083Z,27.08
2022-08-04T14:18:58.446Z,26.98
2022-08-04T14:21:26.266Z,26.95
2022-08-04T14:23:56.170Z,27.06
2022-08-04T14:26:33.978Z,26.92
2022-08-04T14:29:28.473Z,26.85
2022-08-04T14:32:12.452Z,26.76
2022-08-04T14:34:53.586Z,26.69
2022-08-04T14:37:23.061Z,26.73
2022-08-04T14:40:19.218Z,26.69
2022-08-04T14:42:43.654Z,26.72
2022-08-04T14:45:12.248Z,26.31
2022-08-04T14:47:52.689Z,25.50
2022-08-04T14:50:33.076Z,25.03
2022-08-04T14:53:21.427Z,24.46
2022-08-04T14:55:52.083Z,24.10
2022-08-04T14:58:35.109Z,24.02
2022-08-04T15:01:11.015Z,23.87
2022-08-04T15:03:49.877Z,23.87
2022-08-04T15:06:26.499Z,23.78
2022-08-04T15:09:00.085Z,23.82
2022-08-04T15:11:28.992Z,23.94
2022-08-04T15:13:57.951Z,24.16
2022-08-04T15:16:28.407Z,24.25
2022-08-04T15:18:57.598Z,24.37
2022-08-04T15:21:29.103Z,24.46
2022-08-04T15:24:00.243Z,24.54
2022-08-04T15:26:31.487Z,24.61
2022-08-04T15:29:11.029Z,24.60
2022-08-04T15:32:03.935Z,24.62
2022-08-04T15:35:12.803Z,24.68
2022-08-04T15:37:52.968Z,24.66
2022-08-04T15:40:56.494Z,24.66
2022-08-04T15:43:29.798Z,24.71
2022-08-04T15:46:26.517Z,24.68
2022-08-04T15:48:48.407Z,24.62
2022-08-04T15:51:31.833Z,24.47
2022-08-04T15:54:02.234Z,24.48
2022-08-04T15:56:31.783Z,24.47
2022-08-04T15:58:59.469Z,24.54
2022-08-04T16:01:28.185Z,24.60
2022-08-04T16:03:59.723Z,24.54
2022-08-04T16:06:30.095Z,24.54
2022-08-04T16:09:00.646Z,24.50
2022-08-04T16:11:32.994Z,24.52
2022-08-04T16:14:00.837Z,24.54
2022-08-04T16:16:38.594Z,24.52
2022-08-04T16:19:09.371Z,24.49
2022-08-04T16:21:58.279Z,24.49
2022-08-04T16:24:31.762Z,24.48
2022-08-04T16:27:01.058Z,24.52
2022-08-04T16:29:40.877Z,24.48
2022-08-04T16:32:20.425Z,24.49
2022-08-04T16:34:54.252Z,24.48
2022-08-04T16:37:37.805Z,24.47
2022-08-04T16:40:41.104Z,24.49
2022-08-04T16:43:10.215Z,24.47
2022-08-04T16:45:58.878Z,24.46
2022-08-04T16:48:28.793Z,24.41
2022-08-04T16:51:07.241Z,24.38
2022-08-04T16:53:57.929Z,24.36
2022-08-04T16:56:35.556Z,24.37
2022-08-04T16:59:11.466Z,24.36
2022-08-04T17:01:48.103Z,24.36
2022-08-04T17:04:16.961Z,24.29
2022-08-04T17:06:49.498Z,24.27
2022-08-04T17:09:19.702Z,24.28
2022-08-04T17:11:48.602Z,24.33
2022-08-04T17:14:23.549Z,24.32
2022-08-04T17:16:53.688Z,24.29
2022-08-04T17:19:25.366Z,24.21
2022-08-04T17:22:07.340Z,24.20
2022-08-04T17:24:40.816Z,24.22
2022-08-04T17:28:09.752Z,24.22
2022-08-04T17:29:58.913Z,24.27
2022-08-04T17:32:26.831Z,24.31
2022-08-04T17:34:57.512Z,24.31
2022-08-04T17:40:22.536Z,24.29
2022-08-04T17:44:01.551Z,24.25
2022-08-04T17:46:28.844Z,24.15
2022-08-04T17:49:11.911Z,24.20
2022-08-04T17:52:01.469Z,24.22
2022-08-04T17:54:38.819Z,24.24
2022-08-04T17:57:21.917Z,24.22
2022-08-04T17:59:59.522Z,24.16
2022-08-04T18:02:33.006Z,24.12
2022-08-04T18:05:12.149Z,24.15
2022-08-04T18:08:42.839Z,24.16
2022-08-04T18:10:44.606Z,24.13
2022-08-04T18:13:28.356Z,24.14
2022-08-04T18:16:04.319Z,24.15
2022-08-04T18:18:33.251Z,24.08
2022-08-04T18:21:03.136Z,24.06
2022-08-04T18:23:33.437Z,24.07
2022-08-04T18:26:03.505Z,24.08
2022-08-04T18:28:33.331Z,24.05
2022-08-04T18:31:02.185Z,24.00
2022-08-04T18:33:39.824Z,23.97
2022-08-04T18:36:33.077Z,24.05
2022-08-04T18:39:12.656Z,24.02
2022-08-04T18:42:01.225Z,24.02
2022-08-04T18:44:49.389Z,23.98
2022-08-04T18:47:29.708Z,23.89
2022-08-04T18:51:01.172Z,23.90
2022-08-04T18:52:46.154Z,23.82
2022-08-04T18:55:55.690Z,23.82
2022-08-04T18:58:07.394Z,23.82
2022-08-04T19:00:45.282Z,23.80
2022-08-04T19:03:16.513Z,23.76
2022-08-04T19:05:51.699Z,23.79
2022-08-04T19:08:34.905Z,23.81
2022-08-04T19:11:37.133Z,23.80
2022-08-04T19:13:54.672Z,23.74
2022-08-04T19:16:29.869Z,23.69
2022-08-04T19:18:58.821Z,23.65
2022-08-04T19:22:01.461Z,23.64
2022-08-04T19:24:31.260Z,23.63
2022-08-04T19:27:06.331Z,23.64
2022-08-04T19:29:37.177Z,23.60
2022-08-04T19:32:15.113Z,23.59
2022-08-04T19:34:53.522Z,23.55
2022-08-04T19:37:57.435Z,23.53
2022-08-04T19:40:10.301Z,23.44
2022-08-04T19:42:38.456Z,23.40
2022-08-04T19:45:09.817Z,23.43
2022-08-04T19:48:12.049Z,23.38
2022-08-04T19:50:33.660Z,23.27
2022-08-04T19:53:01.282Z,23.32
2022-08-04T19:55:37.073Z,23.22
2022-08-04T19:58:08.552Z,23.16
2022-08-04T20:00:38.081Z,23.13
2022-08-04T20:03:11.581Z,23.12
2022-08-04T20:05:55.376Z,23.12
2022-08-04T20:08:29.954Z,23.13
2022-08-04T20:10:58.286Z,23.06
2022-08-04T20:16:28.587Z,23.02
2022-08-04T20:19:03.129Z,23.01
2022-08-04T20:21:55.544Z,23.00
2022-08-04T20:24:40.482Z,23.01
2022-08-04T20:27:14.708Z,23.04
2022-08-04T20:29:49.915Z,23.00
2022-08-04T20:32:23.680Z,22.96
2022-08-04T20:34:52.970Z,22.90
2022-08-04T20:37:23.682Z,22.89
2022-08-04T20:39:58.982Z,22.87
2022-08-04T20:42:34.146Z,22.84
2022-08-04T20:45:02.501Z,22.82
2022-08-04T20:47:35.413Z,22.79
2022-08-04T20:50:09.048Z,22.74
2022-08-04T20:52:37.827Z,22.73
2022-08-04T20:55:07.655Z,22.76
2022-08-04T20:57:49.108Z,22.74
2022-08-04T21:00:26.602Z,22.69
2022-08-04T21:03:00.553Z,22.70
2022-08-04T21:05:28.683Z,22.78
2022-08-04T21:07:58.953Z,22.69
2022-08-04T21:10:27.150Z,22.67
2022-08-04T21:12:55.541Z,22.66
2022-08-04T21:15:26.389Z,22.61
2022-08-04T21:18:14.025Z,22.65
2022-08-04T21:20:43.161Z,22.60
2022-08-04T21:23:11.095Z,22.54
2022-08-04T21:25:42.681Z,22.54
2022-08-04T21:28:19.190Z,22.55
2022-08-04T21:33:50.694Z,22.47
2022-08-04T21:36:20.235Z,22.39
2022-08-04T21:38:51.071Z,22.42
2022-08-04T21:41:24.923Z,22.44
2022-08-04T21:43:55.010Z,22.45
2022-08-04T21:46:23.842Z,22.42
2022-08-04T21:48:51.679Z,22.37
2022-08-04T21:52:00.685Z,22.39
2022-08-04T21:54:16.553Z,22.38
2022-08-04T21:56:51.134Z,22.35
2022-08-04T21:59:30.507Z,22.36
2022-08-04T22:02:01.453Z,22.36
2022-08-04T22:04:30.196Z,22.33
2022-08-04T22:06:58.217Z,22.30
2022-08-04T22:09:38.924Z,22.26
2022-08-04T22:12:12.003Z,22.27
2022-08-04T22:14:41.051Z,22.22
2022-08-04T22:17:13.879Z,22.23
2022-08-04T22:19:56.357Z,22.24
2022-08-04T22:22:29.107Z,22.29
2022-08-04T22:25:01.953Z,22.25
2022-08-04T22:28:00.922Z,22.20
2022-08-04T22:30:36.941Z,22.16
2022-08-04T22:33:08.195Z,22.20
2022-08-04T22:35:43.982Z,22.19
2022-08-04T22:38:25.306Z,22.17
2022-08-04T22:41:07.706Z,22.12
2022-08-04T22:43:37.706Z,22.04
2022-08-04T22:46:12.910Z,21.98
2022-08-04T22:48:43.117Z,22.01
2022-08-04T22:51:12.875Z,22.04
2022-08-04T22:53:48.730Z,21.98
2022-08-04T22:56:37.414Z,21.93
2022-08-04T22:59:11.213Z,21.91
2022-08-04T23:01:59.492Z,21.95
2022-08-04T23:04:29.119Z,21.95
2022-08-04T23:06:57.029Z,21.92
2022-08-04T23:09:49.006Z,21.98
2022-08-04T23:12:28.645Z,21.96
2022-08-04T23:14:58.303Z,21.98
2022-08-04T23:17:28.415Z,21.96
2022-08-04T23:19:59.510Z,21.86
2022-08-04T23:22:42.049Z,21.90
2022-08-04T23:25:15.446Z,21.91
2022-08-04T23:27:50.769Z,21.98
2022-08-04T23:30:21.796Z,21.91
2022-08-04T23:32:53.795Z,21.85
2022-08-04T23:35:22.537Z,21.87
2022-08-04T23:37:57.761Z,21.88
2022-08-04T23:40:34.234Z,21.86
2022-08-04T23:43:12.336Z,21.87
2022-08-04T23:46:04.609Z,21.79
2022-08-04T23:48:36.214Z,21.76
2022-08-04T23:51:14.527Z,21.77
2022-08-04T23:54:03.072Z,21.78
2022-08-04T23:56:33.947Z,21.80
2022-08-04T23:59:03.634Z,21.80
